Latest Weather Observations for Carters Bore

IDQ60801

Issued at 4:32 pm EST Thursday 30 June 2016 (issued every 30 minutes, with the page automatically refreshed every 10 minutes)

About weather observations | Map of weather stations | Latest weather observations for QLD | Other Formats
Station Details ID: 037053 Name: CARTERS BORE Lat: -20.94 Lon: 139.30 Height: 396.0 m
Data from the previous 72 hours. | See also: Recent months at Carters Bore
Date/Time
EST
Temp
°C
App
Temp
°C
Dew
Point
°C
Rel
Hum
%
Delta-T
°C
Wind Press
QNH
hPa
Press
MSL
hPa
Rain since
9am
mm
Dir  Spd
km/h
Gust
km/h
Spd
kts
Gust
kts
30/04:30pm 24.9 19.4 -5.4 13 12.9 SSW 15 19 8 10 - - 0.0
30/04:00pm 25.0 20.3 -5.3 13 12.9 SSW 11 20 6 11 - - 0.0
30/03:30pm 24.6 20.3 -4.6 14 12.5 SSW 9 15 5 8 - - 0.0
30/03:00pm 24.9 20.7 -3.5 15 12.5 SSW 9 13 5 7 - - 0.0
30/02:30pm 24.3 19.6 -1.5 18 11.7 SW 13 17 7 9 - - 0.0
30/02:00pm 24.8 19.8 -1.1 18 11.9 SW 15 20 8 11 - - 0.0
30/01:30pm 24.1 19.2 -0.2 20 11.3 SW 15 19 8 10 - - 0.0
30/01:00pm 23.6 18.9 0.7 22 10.8 SSW 15 20 8 11 - - 0.0
30/12:30pm 23.5 18.8 1.2 23 10.6 SW 15 22 8 12 - - 0.0
30/12:00pm 22.9 18.9 0.7 23 10.4 SW 11 17 6 9 - - 0.0
30/11:30am 22.2 18.2 0.7 24 10.0 SW 11 17 6 9 - - 0.0
30/11:00am 22.0 19.9 -0.7 22 10.3 CALM 0 6 0 3 - - 0.0
30/10:30am 21.1 18.2 -0.8 23 9.8 NNE 4 6 2 3 - - 0.0
30/10:00am 19.6 16.5 0.1 27 8.8 NE 6 7 3 4 - - 0.0
30/09:30am 17.7 14.4 -0.1 30 7.9 NE 7 11 4 6 - - 0.0
30/09:00am 15.9 12.2 0.1 34 6.9 NE 9 15 5 8 - - 0.0
30/08:30am 14.2 10.4 -0.6 36 6.3 NE 9 13 5 7 - - 0.0
30/08:00am 13.0 9.2 -1.0 38 5.8 ENE 9 11 5 6 - - 0.0
30/07:30am 12.1 7.9 -0.7 41 5.3 ENE 11 15 6 8 - - 0.0
30/07:00am 12.2 8.4 -1.0 40 5.4 ENE 9 15 5 8 - - 0.0
30/06:30am 12.2 7.6 -1.0 40 5.4 ENE 13 17 7 9 - - 0.0
30/06:00am 11.5 7.7 -0.6 43 5.0 ENE 9 13 5 7 - - 0.0
30/05:30am 12.2 8.0 -0.6 41 5.3 ENE 11 17 6 9 - - 0.0
30/05:00am 12.5 9.1 -0.7 40 5.5 E 7 9 4 5 - - 0.0
30/04:30am 12.7 9.5 -0.5 40 5.5 E 6 9 3 5 - - 0.0
30/04:00am 11.9 8.6 0.1 44 5.0 ENE 7 11 4 6 - - 0.0
30/03:30am 12.7 10.0 0.1 42 5.3 ESE 4 11 2 6 - - 0.0
30/03:00am 12.2 9.0 -0.3 42 5.2 SSE 6 6 3 3 - - 0.0
30/02:30am 13.6 10.8 -0.4 38 5.9 SSE 4 6 2 3 - - 0.0
30/02:00am 13.9 11.1 -0.5 37 6.1 SSE 4 6 2 3 - - 0.0
30/01:30am 13.7 10.5 -0.7 37 6.1 S 6 9 3 5 - - 0.0
30/01:00am 14.6 11.3 -1.1 34 6.6 SSE 6 7 3 4 - - 0.0
30/12:30am 16.3 12.4 -1.7 29 7.6 E 9 15 5 8 - - 0.0
30/12:00am 16.2 12.7 -1.4 30 7.5 E 7 13 4 7 - - 0.0
 
Date/Time
EST
Temp
°C
App
Temp
°C
Dew
Point
°C
Rel
Hum
%
Delta-T
°C
Wind Press
QNH
hPa
Press
MSL
hPa
Rain since
9am
mm
Dir  Spd
km/h
Gust
km/h
Spd
kts
Gust
kts
29/11:30pm 16.4 12.2 -1.2 30 7.5 E 11 17 6 9 - - 0.0
29/11:00pm 16.9 12.3 -1.2 29 7.8 E 13 20 7 11 - - 0.0
29/10:30pm 17.2 13.2 -1.9 27 8.1 ESE 9 15 5 8 - - 0.0
29/10:00pm 17.3 13.7 -1.9 27 8.1 ESE 7 13 4 7 - - 0.0
29/09:30pm 16.6 13.3 -1.5 29 7.7 SE 6 7 3 4 - - 0.0
29/09:00pm 16.2 13.1 -0.1 33 7.1 SE 6 6 3 3 - - 0.0
29/08:30pm 15.9 13.5 2.0 39 6.3 ESE 4 6 2 3 - - 0.0
29/08:00pm 16.5 14.0 1.4 36 6.8 SE 4 7 2 4 - - 0.0
29/07:30pm 17.2 14.4 2.0 36 7.0 S 6 7 3 4 - - 0.0
29/07:00pm 18.2 15.7 1.3 32 7.7 SSE 4 6 2 3 - - 0.0
29/06:30pm 20.2 17.2 0.6 27 9.0 S 6 7 3 4 - - 0.0
29/06:00pm 22.4 19.3 0.3 23 10.2 S 6 9 3 5 - - 0.0
29/05:30pm 24.1 20.8 -0.2 20 11.3 SSW 7 11 4 6 - - 0.0
29/05:00pm 24.6 21.4 -0.5 19 11.6 S 6 9 3 5 - - 0.0
29/04:30pm 25.0 21.8 -0.2 19 11.8 SW 6 7 3 4 - - 0.0
29/04:00pm 25.1 22.6 -0.9 18 12.0 SW 2 6 1 3 - - 0.0
29/03:30pm 25.2 22.8 0.0 19 11.8 S 2 4 1 2 - - 0.0
29/03:00pm 24.5 21.8 0.1 20 11.4 NE 4 9 2 5 - - 0.0
29/02:30pm 23.7 20.6 0.1 21 11.0 NE 6 9 3 5 - - 0.0
29/02:00pm 23.3 20.0 0.4 22 10.7 NE 7 15 4 8 - - 0.0
29/01:30pm 22.6 18.9 -0.2 22 10.5 NE 9 13 5 7 - - 0.0
29/01:00pm 22.2 18.5 0.1 23 10.2 NE 9 17 5 9 - - 0.0
29/12:30pm 20.9 17.1 -0.4 24 9.6 ENE 9 17 5 9 - - 0.0
29/12:00pm 20.5 16.3 -0.7 24 9.5 ENE 11 19 6 10 - - 0.0
29/11:30am 19.1 14.5 -0.8 26 8.8 ENE 13 20 7 11 - - 0.0
29/11:00am 18.3 13.7 -1.0 27 8.4 ENE 13 20 7 11 - - 0.0
29/10:30am 16.8 12.0 0.0 32 7.4 ENE 15 22 8 12 - - 0.0
29/10:00am 15.9 11.6 0.9 36 6.7 ENE 13 20 7 11 - - 0.0
29/09:30am 14.3 9.2 0.9 40 5.9 ENE 17 26 9 14 - - 0.0
29/09:00am 13.2 8.2 1.2 44 5.2 ENE 17 32 9 17 - - 0.0
29/08:30am 12.0 7.4 1.3 48 4.6 ENE 15 24 8 13 - - 0.0
29/08:00am 11.0 6.4 1.3 51 4.2 ENE 15 24 8 13 - - 0.0
29/07:30am 10.1 5.8 1.2 54 3.8 ENE 13 26 7 14 - - 0.0
29/07:00am 10.1 5.4 1.2 54 3.8 ENE 15 22 8 12 - - 0.0
29/06:30am 10.3 5.3 1.2 53 3.9 ENE 17 30 9 16 - - 0.0
29/06:00am 10.0 5.7 0.9 53 3.8 E 13 20 7 11 - - 0.0
29/05:30am 10.0 5.3 0.9 53 3.8 E 15 20 8 11 - - 0.0
29/05:00am 10.3 6.0 0.9 52 4.0 E 13 20 7 11 - - 0.0
29/04:30am 10.7 6.4 0.7 50 4.2 E 13 22 7 12 - - 0.0
29/04:00am 10.9 6.5 0.6 49 4.3 E 13 20 7 11 - - 0.0
29/03:30am 11.4 7.0 0.5 47 4.6 E 13 22 7 12 - - 0.0
29/03:00am 11.9 7.6 0.7 46 4.8 ESE 13 22 7 12 - - 0.0
29/02:30am 12.3 7.6 0.7 45 5.0 E 15 28 8 15 - - 0.0
29/02:00am 12.5 7.0 0.6 44 5.1 ESE 19 32 10 17 - - 0.0
29/01:30am 12.6 7.1 0.7 44 5.1 ESE 19 30 10 16 - - 0.0
29/01:00am 12.4 7.3 0.8 45 5.0 ESE 17 26 9 14 - - 0.0
29/12:30am 12.3 8.0 1.3 47 4.8 ESE 13 20 7 11 - - 0.0
29/12:00am 12.2 8.0 1.5 48 4.7 E 13 20 7 11 - - 0.0
 
Date/Time
EST
Temp
°C
App
Temp
°C
Dew
Point
°C
Rel
Hum
%
Delta-T
°C
Wind Press
QNH
hPa
Press
MSL
hPa
Rain since
9am
mm
Dir  Spd
km/h
Gust
km/h
Spd
kts
Gust
kts
28/11:30pm 12.4 8.5 1.4 47 4.8 ESE 11 17 6 9 - - 0.0
28/11:00pm 12.8 8.5 1.2 45 5.0 ESE 13 20 7 11 - - 0.0
28/10:30pm 12.8 8.9 1.2 45 5.0 SE 11 19 6 10 - - 0.0
28/10:00pm 12.8 9.2 0.9 44 5.1 SE 9 15 5 8 - - 0.0
28/09:30pm 13.2 9.3 0.9 43 5.3 SE 11 17 6 9 - - 0.0
28/09:00pm 13.6 9.7 1.3 43 5.4 SE 11 17 6 9 - - 0.0
28/08:30pm 14.1 9.9 1.7 43 5.5 SSE 13 19 7 10 - - 0.0
28/08:00pm 14.2 10.7 1.5 42 5.6 SE 9 15 5 8 - - 0.0
28/07:30pm 14.9 10.7 1.4 40 6.0 SE 13 17 7 9 - - 0.0
28/07:00pm 15.3 11.4 1.4 39 6.2 SE 11 15 6 8 - - 0.0
28/06:30pm 16.0 11.7 1.0 36 6.7 SSE 13 19 7 10 - - 0.0
28/06:00pm 17.0 12.3 1.0 34 7.2 SE 15 20 8 11 - - 0.0
28/05:30pm 17.9 13.2 1.0 32 7.6 SSE 15 24 8 13 - - 0.0
28/05:00pm 18.3 14.1 1.8 33 7.6 SE 13 22 7 12 - - 0.0
28/04:30pm 18.6 13.6 1.2 31 8.0 SE 17 24 9 13 - - 0.0
28/04:00pm 18.6 13.5 0.7 30 8.1 SE 17 28 9 15 - - 0.0
28/03:30pm 18.7 14.1 1.7 32 7.9 SE 15 24 8 13 - - 0.0
28/03:00pm 18.3 13.7 1.8 33 7.6 SE 15 24 8 13 - - 0.0
28/02:30pm 18.0 13.0 1.5 33 7.5 SE 17 28 9 15 - - 0.0
28/02:00pm 17.4 12.8 1.4 34 7.3 SE 15 28 8 15 - - 0.0
28/01:30pm 16.8 11.9 2.0 37 6.8 SSE 17 24 9 13 - - 0.0
28/01:00pm 16.4 11.6 2.4 39 6.4 SSE 17 24 9 13 - - 0.0
28/12:30pm 15.6 11.5 2.4 41 6.0 SE 13 19 7 10 - - 0.0
28/12:00pm 14.8 10.1 3.0 45 5.4 SE 17 24 9 13 - - 0.0
28/11:30am 14.1 9.9 3.8 50 4.8 ESE 15 22 8 12 - - 0.0
28/11:00am 13.1 8.5 3.7 53 4.3 ESE 17 28 9 15 - - 0.0
28/10:30am 12.1 7.5 3.6 56 3.9 ESE 17 28 9 15 - - 0.0
28/10:00am 11.4 6.5 3.9 60 3.4 ESE 19 32 10 17 - - 0.0
28/09:30am 10.5 5.6 4.0 64 2.9 ESE 19 32 10 17 - - 0.0
28/09:00am 9.6 4.1 3.8 67 2.6 SE 22 30 12 16 - - 0.0
28/08:30am 9.1 3.6 3.9 70 2.3 ESE 22 35 12 19 - - 0.0
28/08:00am 8.5 3.6 3.9 73 2.0 ESE 19 30 10 16 - - 0.0
28/07:30am 8.2 3.1 4.0 75 1.9 ESE 20 32 11 17 - - 0.0
28/07:00am 8.2 3.3 4.0 75 1.9 ESE 19 30 10 16 - - 0.0
28/06:30am 8.4 3.3 4.0 74 2.0 ESE 20 32 11 17 - - 0.0
28/06:00am 8.5 4.4 4.3 75 1.9 ESE 15 26 8 14 - - 0.0
28/05:30am 8.7 4.6 4.5 75 1.9 ESE 15 32 8 17 - - 0.0
28/05:00am 8.5 4.8 4.5 76 1.8 SE 13 20 7 11 - - 0.0
28/04:30am 8.7 5.4 4.3 74 2.0 SE 11 19 6 10 - - 0.0
28/04:00am 9.1 5.0 4.5 73 2.1 SE 15 24 8 13 - - 0.0
28/03:30am 9.3 5.3 4.7 73 2.1 SE 15 24 8 13 - - 0.0
28/03:00am 9.5 5.9 4.9 73 2.1 SE 13 22 7 12 - - 0.0
28/02:30am 9.8 6.6 5.0 72 2.2 SE 11 20 6 11 - - 0.0
28/02:00am 10.0 6.8 5.2 72 2.2 SE 11 19 6 10 - - 0.0
28/01:30am 10.3 6.4 5.3 71 2.3 SSE 15 20 8 11 - - 0.0
28/01:00am 10.6 6.7 5.4 70 2.4 SSE 15 24 8 13 - - 0.0
28/12:30am 10.7 7.2 5.3 69 2.5 SE 13 19 7 10 - - 0.0
28/12:00am 11.1 6.8 5.4 68 2.7 SE 17 22 9 12 - - 0.0
 
Date/Time
EST
Temp
°C
App
Temp
°C
Dew
Point
°C
Rel
Hum
%
Delta-T
°C
Wind Press
QNH
hPa
Press
MSL
hPa
Rain since
9am
mm
Dir  Spd
km/h
Gust
km/h
Spd
kts
Gust
kts
27/11:30pm 11.3 7.0 5.4 67 2.8 SE 17 24 9 13 - - 0.0
27/11:00pm 11.5 7.3 5.6 67 2.8 SSE 17 30 9 16 - - 0.0
27/10:30pm 12.0 7.4 5.6 65 3.0 SSE 19 28 10 15 - - 0.0
27/10:00pm 12.4 8.9 5.6 63 3.2 SSE 13 22 7 12 - - 0.0
27/09:30pm 12.9 9.0 5.3 60 3.6 SSE 15 22 8 12 - - 0.0
27/09:00pm 13.4 9.1 5.3 58 3.9 SSE 17 24 9 13 - - 0.0
27/08:30pm 13.7 10.2 5.6 58 3.9 SSE 13 20 7 11 - - 0.0
27/08:00pm 14.3 10.0 5.4 55 4.3 SSE 17 30 9 16 - - 0.0
27/07:30pm 14.7 10.9 5.8 55 4.3 SE 15 24 8 13 - - 0.0
27/07:00pm 15.0 11.6 6.0 55 4.4 SSE 13 24 7 13 - - 0.0
27/06:30pm 15.4 11.3 6.2 54 4.5 SSE 17 24 9 13 - - 0.0
27/06:00pm 16.0 11.9 6.2 52 4.9 SSE 17 24 9 13 - - 0.0
27/05:30pm 16.7 12.3 6.5 51 5.1 SSE 19 26 10 14 - - 0.0
27/05:00pm 17.5 13.2 7.0 50 5.3 SSE 19 26 10 14 - - 0.0

Other Formats:

Comma delimited format used in spreadsheet applications
http://www.bom.gov.au/fwo/IDQ60801/IDQ60801.94347.axf

JavaScript Object Notation format (JSON) in row-major order
http://www.bom.gov.au/fwo/IDQ60801/IDQ60801.94347.json